Tokuyo Maru No.15 — JD2184 — position and weather

sailwx.info

Track history (hours):
 
Tides and Currents Weather Stations Pressure Air Temp Water Temp Dewpoint Dewpoint Depression Visibility Wind Speed Wind Dir Waves Ship Positions

Tokuyo Maru No.15

Last reported at 2018-Apr-22 10:25 UTC. Time now 2018-Apr-23 00:09 UTC.
Position N 35°04' E 140°18'.

Length 66 m; draft 4.5 m.

Type: Tanker. MMSI: 431402034.

Date/timePositionNaut miles runAvg speedWind from/ knotsBaromVisibWave heightAir tempDewpointWater temp
2018-Apr-22 10:25N 35°04' E 140°18'613.1
2018-Apr-22 09:56N 35°01' E 140°11'612.7
2018-Apr-22 09:29N 34°57' E 140°06'712.7
2018-Apr-22 08:59N 34°54' E 139°59'612.5
2018-Apr-22 08:29N 34°52' E 139°52'1113.3
2018-Apr-22 07:40N 34°51' E 139°39'213.8
2018-Apr-22 07:30N 34°51' E 139°36'1213.5
2018-Apr-22 06:35N 34°50' E 139°21'614.6
2018-Apr-22 06:12N 34°46' E 139°15'414.8
2018-Apr-22 05:54N 34°44' E 139°11'614.6
2018-Apr-22 05:29N 34°40' E 139°05'713.6
2018-Apr-22 04:58N 34°36' E 138°58'714.1
2018-Apr-22 04:29N 34°34' E 138°50'713.5
2018-Apr-22 03:57N 34°33' E 138°41'613.7
2018-Apr-22 03:30N 34°32' E 138°34'613.1
2018-Apr-22 03:01N 34°31' E 138°26'17310.7
2018-Apr-21 10:50N 33°50' E 135°03'412.0
2018-Apr-21 10:30N 33°53' E 134°60'612.1
2018-Apr-21 10:00N 33°58' E 134°55'612.1
2018-Apr-21 09:30N 34°02' E 134°50'612.1
2018-Apr-21 08:59N 34°07' E 134°45'712.9
2018-Apr-21 08:28N 34°13' E 134°40'612.8
2018-Apr-21 08:00N 34°17' E 134°35'812.6
2018-Apr-21 07:20N 34°20' E 134°26'412.6
2018-Apr-21 07:00N 34°21' E 134°21'813.1
2018-Apr-21 06:24N 34°24' E 134°12'10 0.2
2018-Apr-19 02:54N 34°21' E 134°23'712.8
2018-Apr-19 02:20N 34°18' E 134°31'412.8
2018-Apr-19 02:00N 34°16' E 134°36'1012.4
2018-Apr-19 01:12N 34°09' E 134°44'312.6
2018-Apr-19 01:00N 34°07' E 134°45'712.4
2018-Apr-19 00:25N 34°01' E 134°50'512.6
2018-Apr-19 00:00N 33°56' E 134°54'612.4
2018-Apr-18 23:30N 33°52' E 134°59'105 9.0
2018-Apr-18 11:47N 34°37' E 136°54'413.2
2018-Apr-18 11:30N 34°39' E 136°50'713.2
2018-Apr-18 11:00N 34°45' E 136°47'713.1
2018-Apr-18 10:30N 34°51' E 136°43'612.9
2018-Apr-18 10:00N 34°58' E 136°41'1 2.8
2018-Apr-18 09:30N 34°59' E 136°40'0 0.0
2018-Apr-18 09:00N 34°59' E 136°40'0 0.0
2018-Apr-18 08:30N 34°59' E 136°40'0 0.0
2018-Apr-18 08:00N 34°59' E 136°40'0 0.0
2018-Apr-18 07:30N 34°59' E 136°40'0 0.0
2018-Apr-18 07:00N 34°59' E 136°40'0 0.1
2018-Apr-18 06:30N 34°59' E 136°40'3 4.8
2018-Apr-18 05:59N 34°57' E 136°38'0 0.0
2018-Apr-18 05:30N 34°57' E 136°38'0 0.0
2018-Apr-18 05:00N 34°57' E 136°38'0 0.0
2018-Apr-18 04:30N 34°57' E 136°38'0 0.0
2018-Apr-18 04:00N 34°57' E 136°38'0 0.0
2018-Apr-18 03:29N 34°57' E 136°38'0 0.0
2018-Apr-18 03:00N 34°57' E 136°38'0 0.0
2018-Apr-18 02:30N 34°57' E 136°38'0 0.0
2018-Apr-18 02:01N 34°57' E 136°38'0 0.0
2018-Apr-18 01:30N 34°57' E 136°38'0 0.0
2018-Apr-18 01:00N 34°57' E 136°38'0 0.0
2018-Apr-18 00:30N 34°57' E 136°38'0 0.0
2018-Apr-18 00:00N 34°57' E 136°38'0 0.0
2018-Apr-17 23:30N 34°57' E 136°38'0 0.0
2018-Apr-17 23:01N 34°57' E 136°38'0 0.4
2018-Apr-17 22:30N 34°57' E 136°39'1 1.7
2018-Apr-17 22:00N 34°58' E 136°39'0 0.0
2018-Apr-17 21:30N 34°58' E 136°39'0 0.0
2018-Apr-17 21:00N 34°58' E 136°39'0 0.0
2018-Apr-17 20:30N 34°58' E 136°39'0 0.0
2018-Apr-17 20:00N 34°58' E 136°39'0 0.0
2018-Apr-17 19:30N 34°58' E 136°39'0 0.0
2018-Apr-17 19:00N 34°58' E 136°39'0 0.0
2018-Apr-17 18:30N 34°58' E 136°39'0 0.0
2018-Apr-17 18:00N 34°58' E 136°39'0 0.0
2018-Apr-17 17:30N 34°58' E 136°39'0 0.0
2018-Apr-17 17:00N 34°58' E 136°39'0 0.0
2018-Apr-17 16:30N 34°58' E 136°39'0 0.0
2018-Apr-17 16:00N 34°58' E 136°39'0 0.0
2018-Apr-17 15:30N 34°58' E 136°39'0 0.0
2018-Apr-17 15:00N 34°58' E 136°39'0 0.0
2018-Apr-17 14:30N 34°58' E 136°39'0 0.1
2018-Apr-17 14:00N 34°58' E 136°39'0 0.1
2018-Apr-17 13:30N 34°58' E 136°39'0 0.1
2018-Apr-17 13:00N 34°58' E 136°39'0 0.0
2018-Apr-17 12:30N 34°58' E 136°39'0 0.0
2018-Apr-17 12:00N 34°58' E 136°39'0 0.0
2018-Apr-17 11:30N 34°58' E 136°39'0 0.0
2018-Apr-17 11:00N 34°58' E 136°39'0 0.1
2018-Apr-17 10:30N 34°58' E 136°39'0 0.1
2018-Apr-17 10:00N 34°58' E 136°39'0 0.0
2018-Apr-17 09:30N 34°58' E 136°39'0 0.0
2018-Apr-17 09:00N 34°58' E 136°39'0 0.0
2018-Apr-17 08:30N 34°58' E 136°39'0 0.0
2018-Apr-17 08:00N 34°58' E 136°39'0 0.1
2018-Apr-17 07:30N 34°58' E 136°39'1 2.8
2018-Apr-17 07:00N 34°59' E 136°40'0 0.0
2018-Apr-17 06:30N 34°59' E 136°40'0 0.0
2018-Apr-17 06:00N 34°59' E 136°40'0 0.0
2018-Apr-17 05:30N 34°59' E 136°40'0 0.0
2018-Apr-17 05:00N 34°59' E 136°40'0 0.0
2018-Apr-17 04:30N 34°59' E 136°40'0 0.0
2018-Apr-17 04:00N 34°59' E 136°40'0 0.0
2018-Apr-17 03:30N 34°59' E 136°40'0 0.0
2018-Apr-17 03:00N 34°59' E 136°40'2 4.1
2018-Apr-17 02:30N 34°57' E 136°39'0 0.9
2018-Apr-17 02:00N 34°57' E 136°38'0 0.0
2018-Apr-17 01:30N 34°57' E 136°38'0 0.0
2018-Apr-17 01:00N 34°57' E 136°38'0 0.0
2018-Apr-17 00:30N 34°57' E 136°38'0 0.0
2018-Apr-17 00:00N 34°57' E 136°38'0 0.0
2018-Apr-16 23:30N 34°57' E 136°38'0 0.1
2018-Apr-16 23:00N 34°57' E 136°38'0 0.2
2018-Apr-16 22:30N 34°57' E 136°38'1 2.7
2018-Apr-16 22:00N 34°57' E 136°40'0 0.0
2018-Apr-16 21:30N 34°57' E 136°40'0 0.1
2018-Apr-16 21:00N 34°57' E 136°40'0 0.0
2018-Apr-16 20:30N 34°57' E 136°40'0 0.1
2018-Apr-16 20:00N 34°57' E 136°40'0 0.0
2018-Apr-16 19:30N 34°57' E 136°40'0 0.0
2018-Apr-16 19:00N 34°57' E 136°40'0 0.1
2018-Apr-16 18:30N 34°57' E 136°40'0 0.0
2018-Apr-16 18:00N 34°57' E 136°40'0 0.0
2018-Apr-16 17:30N 34°57' E 136°40'0 0.0
2018-Apr-16 17:00N 34°57' E 136°40'0 0.1
2018-Apr-16 16:30N 34°57' E 136°40'4 8.7
2018-Apr-16 16:00N 34°53' E 136°42'612.1
2018-Apr-16 15:30N 34°48' E 136°46'912.0
2018-Apr-16 14:47N 34°40' E 136°51'1810.4
2018-Apr-16 13:04N 34°33' E 137°11'112.0
2018-Apr-16 12:57N 34°34' E 137°13'7411.7
2018-Apr-16 06:38N 34°35' E 138°43'512.0
2018-Apr-16 06:12N 34°35' E 138°49'411.9
2018-Apr-16 05:50N 34°35' E 138°54'412.4
2018-Apr-16 05:28N 34°38' E 138°59'613.1
2018-Apr-16 04:59N 34°42' E 139°04'713.0
2018-Apr-16 04:28N 34°47' E 139°10'812.2
2018-Apr-16 03:47N 34°53' E 139°16'1111.2
2018-Apr-16 02:49N 34°59' E 139°28'411.2
2018-Apr-16 02:27N 35°02' E 139°32'511.9
2018-Apr-16 02:00N 35°05' E 139°37'612.6
2018-Apr-16 01:30N 35°09' E 139°43'713.0
2018-Apr-16 01:00N 35°15' E 139°46'612.7
2018-Apr-16 00:30N 35°20' E 139°42'612.2
2018-Apr-16 00:00N 35°26' E 139°45'713.2
2018-Apr-15 23:30N 35°30' E 139°51'611.4
2018-Apr-15 22:59N 35°35' E 139°55'0 0.2
2018-Apr-15 22:20N 35°35' E 139°55'0 0.0
2018-Apr-15 21:51N 35°35' E 139°55'0 0.0
2018-Apr-15 21:29N 35°35' E 139°55'0 0.1
2018-Apr-15 20:56N 35°35' E 139°55'0 0.1
2018-Apr-15 20:20N 35°35' E 139°55'0 0.1
2018-Apr-15 19:59N 35°35' E 139°55'0 0.0
2018-Apr-15 19:21N 35°35' E 139°55'0 0.0
2018-Apr-15 18:37N 35°35' E 139°55'0 0.0
2018-Apr-15 18:27N 35°35' E 139°55'0 0.0
2018-Apr-15 17:24N 35°35' E 139°55'0 0.0
2018-Apr-15 16:52N 35°35' E 139°55'0 0.0
2018-Apr-15 16:28N 35°35' E 139°55'0 0.0
2018-Apr-15 14:58N 35°35' E 139°55'0 0.0
2018-Apr-15 14:30N 35°35' E 139°55'0 0.0
2018-Apr-15 13:59N 35°35' E 139°55'0 0.0
2018-Apr-15 13:29N 35°35' E 139°55'0 0.0
2018-Apr-15 12:57N 35°35' E 139°55'0 0.1
2018-Apr-15 12:23N 35°35' E 139°55'0 0.1
2018-Apr-15 11:59N 35°35' E 139°55'0 0.0
2018-Apr-15 11:27N 35°35' E 139°55'0 0.1
2018-Apr-15 11:00N 35°35' E 139°55'0 0.0
2018-Apr-15 10:27N 35°35' E 139°55'0 0.0
2018-Apr-15 09:51N 35°35' E 139°55'0 0.2
2018-Apr-15 09:29N 35°35' E 139°55'0 0.1
2018-Apr-15 08:48N 35°35' E 139°55'0 0.0
2018-Apr-15 08:24N 35°35' E 139°55'0 0.0
2018-Apr-15 07:53N 35°35' E 139°55'0 0.0
2018-Apr-15 07:27N 35°35' E 139°55'0 0.0
2018-Apr-15 06:04N 35°35' E 139°55'0 0.0
2018-Apr-15 05:08N 35°35' E 139°55'0 0.0
2018-Apr-15 04:38N 35°35' E 139°55'0 0.0
2018-Apr-15 04:19N 35°35' E 139°55'0 0.0
2018-Apr-15 03:51N 35°35' E 139°55'0 0.0
2018-Apr-15 03:28N 35°35' E 139°55'0 0.0
2018-Apr-15 02:55N 35°35' E 139°55'0 0.0
2018-Apr-15 02:15N 35°35' E 139°55'0 0.0
2018-Apr-15 01:48N 35°35' E 139°55'0 0.0
2018-Apr-15 01:24N 35°35' E 139°55'0 0.0
2018-Apr-15 00:55N 35°35' E 139°55'0 0.0
2018-Apr-15 00:30N 35°35' E 139°55'0 0.0
2018-Apr-15 00:00N 35°35' E 139°55'0 0.0
2018-Apr-14 23:30N 35°35' E 139°55'0 0.0
2018-Apr-14 22:56N 35°35' E 139°55'0 0.0
2018-Apr-14 22:25N 35°35' E 139°55'0 0.0
2018-Apr-14 21:43N 35°35' E 139°55'0 0.0
2018-Apr-14 21:21N 35°35' E 139°55'0 0.0
2018-Apr-14 19:49N 35°35' E 139°55'0 0.0
2018-Apr-14 19:28N 35°35' E 139°55'0 0.0
2018-Apr-14 19:00N 35°35' E 139°55'0 0.0
2018-Apr-14 17:59N 35°35' E 139°55'0 0.1
2018-Apr-14 17:24N 35°35' E 139°55'0 0.0
2018-Apr-14 16:48N 35°35' E 139°55'0 0.0
2018-Apr-14 16:30N 35°35' E 139°55'0 0.0
2018-Apr-14 15:56N 35°35' E 139°55'0 0.0
2018-Apr-14 15:25N 35°35' E 139°55'0 0.0
2018-Apr-14 14:46N 35°35' E 139°55'0 0.0
2018-Apr-14 14:22N 35°35' E 139°55'0 0.0
2018-Apr-14 13:51N 35°35' E 139°55'0 0.0
2018-Apr-14 13:30N 35°35' E 139°55'0 0.0
2018-Apr-14 12:51N 35°35' E 139°55'0 0.0
2018-Apr-14 12:12N 35°35' E 139°55'0 0.0
2018-Apr-14 12:00N 35°35' E 139°55'0 0.0
2018-Apr-14 11:30N 35°35' E 139°55'0 0.0
2018-Apr-14 10:56N 35°35' E 139°55'0 0.0
2018-Apr-14 10:29N 35°35' E 139°55'0 0.0
2018-Apr-14 09:57N 35°35' E 139°55'0 0.0
2018-Apr-14 09:12N 35°35' E 139°55'0 0.1
2018-Apr-14 08:37N 35°35' E 139°55'0 0.0
2018-Apr-14 08:09N 35°35' E 139°55'0 0.0
2018-Apr-14 07:55N 35°35' E 139°55'0 0.0
2018-Apr-14 06:02N 35°35' E 139°55'0 0.0
2018-Apr-14 05:56N 35°35' E 139°55'0 0.0
2018-Apr-14 05:28N 35°35' E 139°55'0 0.0
2018-Apr-14 04:58N 35°35' E 139°55'0 0.1
2018-Apr-14 04:29N 35°35' E 139°55'0 0.0
2018-Apr-14 03:54N 35°35' E 139°55'0 0.0
2018-Apr-14 03:29N 35°35' E 139°55'0 0.0
2018-Apr-14 02:58N 35°35' E 139°55'0 0.1
2018-Apr-14 02:29N 35°35' E 139°55'0 0.1
2018-Apr-14 01:59N 35°35' E 139°55'0 0.0
2018-Apr-14 01:17N 35°35' E 139°55'0 0.0
2018-Apr-14 01:00N 35°35' E 139°55'0 0.0
2018-Apr-14 00:22N 35°35' E 139°55'0 0.0
2018-Apr-13 23:53N 35°35' E 139°55'0 0.0
2018-Apr-13 23:27N 35°35' E 139°55'0 0.0
2018-Apr-13 22:57N 35°35' E 139°55'0 0.1
2018-Apr-13 22:15N 35°35' E 139°54'0 0.0
2018-Apr-13 21:38N 35°35' E 139°54'0 0.0
2018-Apr-13 21:09N 35°35' E 139°54'0 0.0
2018-Apr-13 20:48N 35°35' E 139°54'0 0.0
2018-Apr-13 20:24N 35°35' E 139°54'1 0.5
2018-Apr-13 19:13N 35°35' E 139°55'311.4
2018-Apr-13 18:59N 35°34' E 139°58'510.4
2018-Apr-13 18:31N 35°31' E 140°03'0 0.1
2018-Apr-13 18:00N 35°31' E 140°03'0 0.0
2018-Apr-13 17:26N 35°31' E 140°03'0 0.0
2018-Apr-13 17:00N 35°31' E 140°03'0 0.0
2018-Apr-13 16:30N 35°31' E 140°03'0 0.0
2018-Apr-13 16:00N 35°31' E 140°03'0 0.0
2018-Apr-13 15:28N 35°31' E 140°03'0 0.0
2018-Apr-13 14:59N 35°31' E 140°03'0 0.0
2018-Apr-13 14:30N 35°31' E 140°03'0 0.0
2018-Apr-13 14:00N 35°31' E 140°03'0 0.0
2018-Apr-13 13:29N 35°31' E 140°03'0 0.0
2018-Apr-13 12:59N 35°31' E 140°03'0 0.0
2018-Apr-13 12:30N 35°31' E 140°03'0 0.0
2018-Apr-13 12:00N 35°31' E 140°03'0 0.0
2018-Apr-13 11:30N 35°31' E 140°03'0 0.0
2018-Apr-13 11:00N 35°31' E 140°03'0 0.0
2018-Apr-13 10:30N 35°31' E 140°03'0 0.0
2018-Apr-13 10:00N 35°31' E 140°03'0 0.0
2018-Apr-13 09:29N 35°31' E 140°03'0 0.0
2018-Apr-13 09:00N 35°31' E 140°03'0 0.0
2018-Apr-13 08:27N 35°31' E 140°03'0 0.0
2018-Apr-13 07:59N 35°31' E 140°03'0 0.0
2018-Apr-13 07:24N 35°31' E 140°03'0 0.0
2018-Apr-13 06:57N 35°31' E 140°03'0 0.0
2018-Apr-13 06:29N 35°31' E 140°03'0 0.0
2018-Apr-13 06:00N 35°31' E 140°03'0 0.0
2018-Apr-13 05:29N 35°31' E 140°03'0 0.0
2018-Apr-13 04:59N 35°31' E 140°03'0 0.0
2018-Apr-13 04:30N 35°31' E 140°03'0 0.0
2018-Apr-13 04:00N 35°31' E 140°03'3 5.8
2018-Apr-13 03:29N 35°30' E 139°59'612.0
2018-Apr-13 03:00N 35°29' E 139°52'611.8
2018-Apr-13 02:30N 35°25' E 139°47'612.1
2018-Apr-13 02:00N 35°19' E 139°44'611.6
2018-Apr-13 01:30N 35°14' E 139°47'611.5
2018-Apr-13 01:01N 35°08' E 139°46'611.9
2018-Apr-13 00:30N 35°02' E 139°44'810.3
2018-Apr-12 23:40N 34°54' E 139°47'1011.2
2018-Apr-12 22:47N 34°54' E 139°59'  
Track history (hours):
 
Tides and Currents Weather Stations Pressure Air Temp Water Temp Dewpoint Dewpoint Depression Visibility Wind Speed Wind Dir Waves Ship Positions

Tokuyo Maru No.15

Last reported at 2018-Apr-22 10:25 UTC. Time now 2018-Apr-23 00:09 UTC.
Position N 35°04' E 140°18'.

Length 66 m; draft 4.5 m.

Type: Tanker. MMSI: 431402034.

Date/timePositionNaut miles runAvg speedWind from/ knotsBaromVisibWave heightAir tempDewpointWater temp
2018-Apr-22 10:25N 35°04' E 140°18'613.1
2018-Apr-22 09:56N 35°01' E 140°11'612.7
2018-Apr-22 09:29N 34°57' E 140°06'712.7
2018-Apr-22 08:59N 34°54' E 139°59'612.5
2018-Apr-22 08:29N 34°52' E 139°52'1113.3
2018-Apr-22 07:40N 34°51' E 139°39'213.8
2018-Apr-22 07:30N 34°51' E 139°36'1213.5
2018-Apr-22 06:35N 34°50' E 139°21'614.6
2018-Apr-22 06:12N 34°46' E 139°15'414.8
2018-Apr-22 05:54N 34°44' E 139°11'614.6
2018-Apr-22 05:29N 34°40' E 139°05'713.6
2018-Apr-22 04:58N 34°36' E 138°58'714.1
2018-Apr-22 04:29N 34°34' E 138°50'713.5
2018-Apr-22 03:57N 34°33' E 138°41'613.7
2018-Apr-22 03:30N 34°32' E 138°34'613.1
2018-Apr-22 03:01N 34°31' E 138°26'17310.7
2018-Apr-21 10:50N 33°50' E 135°03'412.0
2018-Apr-21 10:30N 33°53' E 134°60'612.1
2018-Apr-21 10:00N 33°58' E 134°55'612.1
2018-Apr-21 09:30N 34°02' E 134°50'612.1
2018-Apr-21 08:59N 34°07' E 134°45'712.9
2018-Apr-21 08:28N 34°13' E 134°40'612.8
2018-Apr-21 08:00N 34°17' E 134°35'812.6
2018-Apr-21 07:20N 34°20' E 134°26'412.6
2018-Apr-21 07:00N 34°21' E 134°21'813.1
2018-Apr-21 06:24N 34°24' E 134°12'10 0.2
2018-Apr-19 02:54N 34°21' E 134°23'712.8
2018-Apr-19 02:20N 34°18' E 134°31'412.8
2018-Apr-19 02:00N 34°16' E 134°36'1012.4
2018-Apr-19 01:12N 34°09' E 134°44'312.6
2018-Apr-19 01:00N 34°07' E 134°45'712.4
2018-Apr-19 00:25N 34°01' E 134°50'512.6
2018-Apr-19 00:00N 33°56' E 134°54'612.4
2018-Apr-18 23:30N 33°52' E 134°59'105 9.0
2018-Apr-18 11:47N 34°37' E 136°54'413.2
2018-Apr-18 11:30N 34°39' E 136°50'713.2
2018-Apr-18 11:00N 34°45' E 136°47'713.1
2018-Apr-18 10:30N 34°51' E 136°43'612.9
2018-Apr-18 10:00N 34°58' E 136°41'1 2.8
2018-Apr-18 09:30N 34°59' E 136°40'0 0.0
2018-Apr-18 09:00N 34°59' E 136°40'0 0.0
2018-Apr-18 08:30N 34°59' E 136°40'0 0.0
2018-Apr-18 08:00N 34°59' E 136°40'0 0.0
2018-Apr-18 07:30N 34°59' E 136°40'0 0.0
2018-Apr-18 07:00N 34°59' E 136°40'0 0.1
2018-Apr-18 06:30N 34°59' E 136°40'3 4.8
2018-Apr-18 05:59N 34°57' E 136°38'0 0.0
2018-Apr-18 05:30N 34°57' E 136°38'0 0.0
2018-Apr-18 05:00N 34°57' E 136°38'0 0.0
2018-Apr-18 04:30N 34°57' E 136°38'0 0.0
2018-Apr-18 04:00N 34°57' E 136°38'0 0.0
2018-Apr-18 03:29N 34°57' E 136°38'0 0.0
2018-Apr-18 03:00N 34°57' E 136°38'0 0.0
2018-Apr-18 02:30N 34°57' E 136°38'0 0.0
2018-Apr-18 02:01N 34°57' E 136°38'0 0.0
2018-Apr-18 01:30N 34°57' E 136°38'0 0.0
2018-Apr-18 01:00N 34°57' E 136°38'0 0.0
2018-Apr-18 00:30N 34°57' E 136°38'0 0.0
2018-Apr-18 00:00N 34°57' E 136°38'0 0.0
2018-Apr-17 23:30N 34°57' E 136°38'0 0.0
2018-Apr-17 23:01N 34°57' E 136°38'0 0.4
2018-Apr-17 22:30N 34°57' E 136°39'1 1.7
2018-Apr-17 22:00N 34°58' E 136°39'0 0.0
2018-Apr-17 21:30N 34°58' E 136°39'0 0.0
2018-Apr-17 21:00N 34°58' E 136°39'0 0.0
2018-Apr-17 20:30N 34°58' E 136°39'0 0.0
2018-Apr-17 20:00N 34°58' E 136°39'0 0.0
2018-Apr-17 19:30N 34°58' E 136°39'0 0.0
2018-Apr-17 19:00N 34°58' E 136°39'0 0.0
2018-Apr-17 18:30N 34°58' E 136°39'0 0.0
2018-Apr-17 18:00N 34°58' E 136°39'0 0.0
2018-Apr-17 17:30N 34°58' E 136°39'0 0.0
2018-Apr-17 17:00N 34°58' E 136°39'0 0.0
2018-Apr-17 16:30N 34°58' E 136°39'0 0.0
2018-Apr-17 16:00N 34°58' E 136°39'0 0.0
2018-Apr-17 15:30N 34°58' E 136°39'0 0.0
2018-Apr-17 15:00N 34°58' E 136°39'0 0.0
2018-Apr-17 14:30N 34°58' E 136°39'0 0.1
2018-Apr-17 14:00N 34°58' E 136°39'0 0.1
2018-Apr-17 13:30N 34°58' E 136°39'0 0.1
2018-Apr-17 13:00N 34°58' E 136°39'0 0.0
2018-Apr-17 12:30N 34°58' E 136°39'0 0.0
2018-Apr-17 12:00N 34°58' E 136°39'0 0.0
2018-Apr-17 11:30N 34°58' E 136°39'0 0.0
2018-Apr-17 11:00N 34°58' E 136°39'0 0.1
2018-Apr-17 10:30N 34°58' E 136°39'0 0.1
2018-Apr-17 10:00N 34°58' E 136°39'0 0.0
2018-Apr-17 09:30N 34°58' E 136°39'0 0.0
2018-Apr-17 09:00N 34°58' E 136°39'0 0.0
2018-Apr-17 08:30N 34°58' E 136°39'0 0.0
2018-Apr-17 08:00N 34°58' E 136°39'0 0.1
2018-Apr-17 07:30N 34°58' E 136°39'1 2.8
2018-Apr-17 07:00N 34°59' E 136°40'0 0.0
2018-Apr-17 06:30N 34°59' E 136°40'0 0.0
2018-Apr-17 06:00N 34°59' E 136°40'0 0.0
2018-Apr-17 05:30N 34°59' E 136°40'0 0.0
2018-Apr-17 05:00N 34°59' E 136°40'0 0.0
2018-Apr-17 04:30N 34°59' E 136°40'0 0.0
2018-Apr-17 04:00N 34°59' E 136°40'0 0.0
2018-Apr-17 03:30N 34°59' E 136°40'0 0.0
2018-Apr-17 03:00N 34°59' E 136°40'2 4.1
2018-Apr-17 02:30N 34°57' E 136°39'0 0.9
2018-Apr-17 02:00N 34°57' E 136°38'0 0.0
2018-Apr-17 01:30N 34°57' E 136°38'0 0.0
2018-Apr-17 01:00N 34°57' E 136°38'0 0.0
2018-Apr-17 00:30N 34°57' E 136°38'0 0.0
2018-Apr-17 00:00N 34°57' E 136°38'0 0.0
2018-Apr-16 23:30N 34°57' E 136°38'0 0.1
2018-Apr-16 23:00N 34°57' E 136°38'0 0.2
2018-Apr-16 22:30N 34°57' E 136°38'1 2.7
2018-Apr-16 22:00N 34°57' E 136°40'0 0.0
2018-Apr-16 21:30N 34°57' E 136°40'0 0.1
2018-Apr-16 21:00N 34°57' E 136°40'0 0.0
2018-Apr-16 20:30N 34°57' E 136°40'0 0.1
2018-Apr-16 20:00N 34°57' E 136°40'0 0.0
2018-Apr-16 19:30N 34°57' E 136°40'0 0.0
2018-Apr-16 19:00N 34°57' E 136°40'0 0.1
2018-Apr-16 18:30N 34°57' E 136°40'0 0.0
2018-Apr-16 18:00N 34°57' E 136°40'0 0.0
2018-Apr-16 17:30N 34°57' E 136°40'0 0.0
2018-Apr-16 17:00N 34°57' E 136°40'0 0.1
2018-Apr-16 16:30N 34°57' E 136°40'4 8.7
2018-Apr-16 16:00N 34°53' E 136°42'612.1
2018-Apr-16 15:30N 34°48' E 136°46'912.0
2018-Apr-16 14:47N 34°40' E 136°51'1810.4
2018-Apr-16 13:04N 34°33' E 137°11'112.0
2018-Apr-16 12:57N 34°34' E 137°13'7411.7
2018-Apr-16 06:38N 34°35' E 138°43'512.0
2018-Apr-16 06:12N 34°35' E 138°49'411.9
2018-Apr-16 05:50N 34°35' E 138°54'412.4
2018-Apr-16 05:28N 34°38' E 138°59'613.1
2018-Apr-16 04:59N 34°42' E 139°04'713.0
2018-Apr-16 04:28N 34°47' E 139°10'812.2
2018-Apr-16 03:47N 34°53' E 139°16'1111.2
2018-Apr-16 02:49N 34°59' E 139°28'411.2
2018-Apr-16 02:27N 35°02' E 139°32'511.9
2018-Apr-16 02:00N 35°05' E 139°37'612.6
2018-Apr-16 01:30N 35°09' E 139°43'713.0
2018-Apr-16 01:00N 35°15' E 139°46'612.7
2018-Apr-16 00:30N 35°20' E 139°42'612.2
2018-Apr-16 00:00N 35°26' E 139°45'713.2
2018-Apr-15 23:30N 35°30' E 139°51'611.4
2018-Apr-15 22:59N 35°35' E 139°55'0 0.2
2018-Apr-15 22:20N 35°35' E 139°55'0 0.0
2018-Apr-15 21:51N 35°35' E 139°55'0 0.0
2018-Apr-15 21:29N 35°35' E 139°55'0 0.1
2018-Apr-15 20:56N 35°35' E 139°55'0 0.1
2018-Apr-15 20:20N 35°35' E 139°55'0 0.1
2018-Apr-15 19:59N 35°35' E 139°55'0 0.0
2018-Apr-15 19:21N 35°35' E 139°55'0 0.0
2018-Apr-15 18:37N 35°35' E 139°55'0 0.0
2018-Apr-15 18:27N 35°35' E 139°55'0 0.0
2018-Apr-15 17:24N 35°35' E 139°55'0 0.0
2018-Apr-15 16:52N 35°35' E 139°55'0 0.0
2018-Apr-15 16:28N 35°35' E 139°55'0 0.0
2018-Apr-15 14:58N 35°35' E 139°55'0 0.0
2018-Apr-15 14:30N 35°35' E 139°55'0 0.0
2018-Apr-15 13:59N 35°35' E 139°55'0 0.0
2018-Apr-15 13:29N 35°35' E 139°55'0 0.0
2018-Apr-15 12:57N 35°35' E 139°55'0 0.1
2018-Apr-15 12:23N 35°35' E 139°55'0 0.1
2018-Apr-15 11:59N 35°35' E 139°55'0 0.0
2018-Apr-15 11:27N 35°35' E 139°55'0 0.1
2018-Apr-15 11:00N 35°35' E 139°55'0 0.0
2018-Apr-15 10:27N 35°35' E 139°55'0 0.0
2018-Apr-15 09:51N 35°35' E 139°55'0 0.2
2018-Apr-15 09:29N 35°35' E 139°55'0 0.1
2018-Apr-15 08:48N 35°35' E 139°55'0 0.0
2018-Apr-15 08:24N 35°35' E 139°55'0 0.0
2018-Apr-15 07:53N 35°35' E 139°55'0 0.0
2018-Apr-15 07:27N 35°35' E 139°55'0 0.0
2018-Apr-15 06:04N 35°35' E 139°55'0 0.0
2018-Apr-15 05:08N 35°35' E 139°55'0 0.0
2018-Apr-15 04:38N 35°35' E 139°55'0 0.0
2018-Apr-15 04:19N 35°35' E 139°55'0 0.0
2018-Apr-15 03:51N 35°35' E 139°55'0 0.0
2018-Apr-15 03:28N 35°35' E 139°55'0 0.0
2018-Apr-15 02:55N 35°35' E 139°55'0 0.0
2018-Apr-15 02:15N 35°35' E 139°55'0 0.0
2018-Apr-15 01:48N 35°35' E 139°55'0 0.0
2018-Apr-15 01:24N 35°35' E 139°55'0 0.0
2018-Apr-15 00:55N 35°35' E 139°55'0 0.0
2018-Apr-15 00:30N 35°35' E 139°55'0 0.0
2018-Apr-15 00:00N 35°35' E 139°55'0 0.0
2018-Apr-14 23:30N 35°35' E 139°55'0 0.0
2018-Apr-14 22:56N 35°35' E 139°55'0 0.0
2018-Apr-14 22:25N 35°35' E 139°55'0 0.0
2018-Apr-14 21:43N 35°35' E 139°55'0 0.0
2018-Apr-14 21:21N 35°35' E 139°55'0 0.0
2018-Apr-14 19:49N 35°35' E 139°55'0 0.0
2018-Apr-14 19:28N 35°35' E 139°55'0 0.0
2018-Apr-14 19:00N 35°35' E 139°55'0 0.0
2018-Apr-14 17:59N 35°35' E 139°55'0 0.1
2018-Apr-14 17:24N 35°35' E 139°55'0 0.0
2018-Apr-14 16:48N 35°35' E 139°55'0 0.0
2018-Apr-14 16:30N 35°35' E 139°55'0 0.0
2018-Apr-14 15:56N 35°35' E 139°55'0 0.0
2018-Apr-14 15:25N 35°35' E 139°55'0 0.0
2018-Apr-14 14:46N 35°35' E 139°55'0 0.0
2018-Apr-14 14:22N 35°35' E 139°55'0 0.0
2018-Apr-14 13:51N 35°35' E 139°55'0 0.0
2018-Apr-14 13:30N 35°35' E 139°55'0 0.0
2018-Apr-14 12:51N 35°35' E 139°55'0 0.0
2018-Apr-14 12:12N 35°35' E 139°55'0 0.0
2018-Apr-14 12:00N 35°35' E 139°55'0 0.0
2018-Apr-14 11:30N 35°35' E 139°55'0 0.0
2018-Apr-14 10:56N 35°35' E 139°55'0 0.0
2018-Apr-14 10:29N 35°35' E 139°55'0 0.0
2018-Apr-14 09:57N 35°35' E 139°55'0 0.0
2018-Apr-14 09:12N 35°35' E 139°55'0 0.1
2018-Apr-14 08:37N 35°35' E 139°55'0 0.0
2018-Apr-14 08:09N 35°35' E 139°55'0 0.0
2018-Apr-14 07:55N 35°35' E 139°55'0 0.0
2018-Apr-14 06:02N 35°35' E 139°55'0 0.0
2018-Apr-14 05:56N 35°35' E 139°55'0 0.0
2018-Apr-14 05:28N 35°35' E 139°55'0 0.0
2018-Apr-14 04:58N 35°35' E 139°55'0 0.1
2018-Apr-14 04:29N 35°35' E 139°55'0 0.0
2018-Apr-14 03:54N 35°35' E 139°55'0 0.0
2018-Apr-14 03:29N 35°35' E 139°55'0 0.0
2018-Apr-14 02:58N 35°35' E 139°55'0 0.1
2018-Apr-14 02:29N 35°35' E 139°55'0 0.1
2018-Apr-14 01:59N 35°35' E 139°55'0 0.0
2018-Apr-14 01:17N 35°35' E 139°55'0 0.0
2018-Apr-14 01:00N 35°35' E 139°55'0 0.0
2018-Apr-14 00:22N 35°35' E 139°55'0 0.0
2018-Apr-13 23:53N 35°35' E 139°55'0 0.0
2018-Apr-13 23:27N 35°35' E 139°55'0 0.0
2018-Apr-13 22:57N 35°35' E 139°55'0 0.1
2018-Apr-13 22:15N 35°35' E 139°54'0 0.0
2018-Apr-13 21:38N 35°35' E 139°54'0 0.0
2018-Apr-13 21:09N 35°35' E 139°54'0 0.0
2018-Apr-13 20:48N 35°35' E 139°54'0 0.0
2018-Apr-13 20:24N 35°35' E 139°54'1 0.5
2018-Apr-13 19:13N 35°35' E 139°55'311.4
2018-Apr-13 18:59N 35°34' E 139°58'510.4
2018-Apr-13 18:31N 35°31' E 140°03'0 0.1
2018-Apr-13 18:00N 35°31' E 140°03'0 0.0
2018-Apr-13 17:26N 35°31' E 140°03'0 0.0
2018-Apr-13 17:00N 35°31' E 140°03'0 0.0
2018-Apr-13 16:30N 35°31' E 140°03'0 0.0
2018-Apr-13 16:00N 35°31' E 140°03'0 0.0
2018-Apr-13 15:28N 35°31' E 140°03'0 0.0
2018-Apr-13 14:59N 35°31' E 140°03'0 0.0
2018-Apr-13 14:30N 35°31' E 140°03'0 0.0
2018-Apr-13 14:00N 35°31' E 140°03'0 0.0
2018-Apr-13 13:29N 35°31' E 140°03'0 0.0
2018-Apr-13 12:59N 35°31' E 140°03'0 0.0
2018-Apr-13 12:30N 35°31' E 140°03'0 0.0
2018-Apr-13 12:00N 35°31' E 140°03'0 0.0
2018-Apr-13 11:30N 35°31' E 140°03'0 0.0
2018-Apr-13 11:00N 35°31' E 140°03'0 0.0
2018-Apr-13 10:30N 35°31' E 140°03'0 0.0
2018-Apr-13 10:00N 35°31' E 140°03'0 0.0
2018-Apr-13 09:29N 35°31' E 140°03'0 0.0
2018-Apr-13 09:00N 35°31' E 140°03'0 0.0
2018-Apr-13 08:27N 35°31' E 140°03'0 0.0
2018-Apr-13 07:59N 35°31' E 140°03'0 0.0
2018-Apr-13 07:24N 35°31' E 140°03'0 0.0
2018-Apr-13 06:57N 35°31' E 140°03'0 0.0
2018-Apr-13 06:29N 35°31' E 140°03'0 0.0
2018-Apr-13 06:00N 35°31' E 140°03'0 0.0
2018-Apr-13 05:29N 35°31' E 140°03'0 0.0
2018-Apr-13 04:59N 35°31' E 140°03'0 0.0
2018-Apr-13 04:30N 35°31' E 140°03'0 0.0
2018-Apr-13 04:00N 35°31' E 140°03'3 5.8
2018-Apr-13 03:29N 35°30' E 139°59'612.0
2018-Apr-13 03:00N 35°29' E 139°52'611.8
2018-Apr-13 02:30N 35°25' E 139°47'612.1
2018-Apr-13 02:00N 35°19' E 139°44'611.6
2018-Apr-13 01:30N 35°14' E 139°47'611.5
2018-Apr-13 01:01N 35°08' E 139°46'611.9
2018-Apr-13 00:30N 35°02' E 139°44'810.3
2018-Apr-12 23:40N 34°54' E 139°47'1011.2
2018-Apr-12 22:47N 34°54' E 139°59'  

Dump ship's entire track history